CheckWX is a tool to help pilots better visualize weather data.  It is not intended as a substitute for an official pre-flight weather briefing.

07:00:28 UTC

KTIK TAF
Tinker AFB Airport
Oklahoma City, Oklahoma, USA
TAF AMD KTIK 210535Z 2105/2207 21012G18KT 9999 BKN100 510203 QNH2991INS TEMPO 2105/2107 17015G25KT 8000 -TSRA BKN050CB BECMG 2114/2115 18012G18KT 9999 OVC025 QNH2996INS BECMG 2120/2121 19015G25KT 9999 BKN050 QNH2995INS BECMG 2200/2201 17012KT 9999 BKN050 510205 QNH2998INS TX30/2121Z TN19/2110Z

Sep-21@
05:00 UTC

Sep-21 @ 05:00 UTC

Sep-21@
14:00 UTC

Sep-21 @ 14:00 UTC

TAF AMD KTIK 210535Z 2105/2207 21012G18KT 9999 BKN100 510203 QNH2991INS
Wind
  • 210° at 12 KTS
  • {Gusting to 18 KTS
Cloud Levels
  • Broken at 10,000' AGL
Turbulence
< Light turbulence expected at 2,000' AGL extending to 5,000' AGL

Sep-21@
05:00 UTC

Sep-21 @ 05:00 UTC

Sep-21@
07:00 UTC

Sep-21 @ 07:00 UTC

TEMPO 2105/2107 17015G25KT 8000 -TSRA BKN050CB

Expired

Wind
  • 170° at 15 KTS
  • {Gusting to 25 KTS
Conditions
Light Thunderstorm, Light Rain
Cloud Levels
  • Broken at 5,000' AGL

Sep-21@
14:00 UTC

Sep-21 @ 14:00 UTC

Sep-21@
20:00 UTC

Sep-21 @ 20:00 UTC

BECMG 2114/2115 18012G18KT 9999 OVC025 QNH2996INS

Becoming

Becoming Conditions expected by Sat, Sep 21, 2019 @ 15:00 UTC

Wind
  • 180° at 12 KTS
  • {Gusting to 18 KTS
Cloud Levels
  • Overcast at 2,500' AGL

Sep-21@
20:00 UTC

Sep-21 @ 20:00 UTC

Sep-22@
00:00 UTC

Sep-22 @ 00:00 UTC

BECMG 2120/2121 19015G25KT 9999 BKN050 QNH2995INS

Becoming

Becoming Conditions expected by Sat, Sep 21, 2019 @ 21:00 UTC

Wind
  • 190° at 15 KTS
  • {Gusting to 25 KTS
Cloud Levels
  • Broken at 5,000' AGL

Sep-22@
00:00 UTC

Sep-22 @ 00:00 UTC

Sep-22@
07:00 UTC

Sep-22 @ 07:00 UTC

BECMG 2200/2201 17012KT 9999 BKN050 510205 QNH2998INS TX30/2121Z TN19/2110Z

Becoming

Becoming Conditions expected by Sun, Sep 22, 2019 @ 01:00 UTC

Wind
  • 170° at 12 KTS
Cloud Levels
  • Broken at 5,000' AGL
Turbulence
< Light turbulence expected at 2,000' AGL extending to 7,000' AGL